Time;durP1;ratioP1;P1;durP2;ratioP2;P2;SDS_P1;SDS_P2;PMS_P1;PMS_P2;Temp;Humidity;BMP_temperature;BMP_pressure;BME280_temperature;BME280_humidity;BME280_pressure;Samples;Min_cycle;Max_cycle;Signal;HPM_P1;HPM_P2
2022/07/27 00:02:19;;;;;;;6.15;2.33;;;12.80;99.90;;;;;;4959647;28;20047;-72
2022/07/27 00:04:45;;;;;;;7.22;2.28;;;12.90;99.90;;;;;;4960138;28;20046;-71
2022/07/27 00:07:11;;;;;;;5.18;2.38;;;12.90;99.90;;;;;;4959726;28;20512;-72
2022/07/27 00:09:37;;;;;;;8.30;2.30;;;12.90;99.90;;;;;;4959487;28;20125;-72
2022/07/27 00:12:03;;;;;;;6.03;2.72;;;13.00;99.90;;;;;;4976083;28;20109;-72
2022/07/27 00:14:29;;;;;;;7.97;2.45;;;13.00;99.90;;;;;;4976138;28;20046;-72
2022/07/27 00:16:55;;;;;;;5.00;2.67;;;13.00;99.90;;;;;;4993317;28;20069;-72
2022/07/27 00:19:22;;;;;;;7.30;2.42;;;13.00;99.90;;;;;;4960226;28;20046;-72
2022/07/27 00:21:49;;;;;;;6.57;2.35;;;13.00;99.90;;;;;;4976026;28;20038;-72
2022/07/27 00:24:15;;;;;;;5.47;2.47;;;13.10;99.90;;;;;;4993113;28;20553;-72
2022/07/27 00:26:41;;;;;;;7.00;2.67;;;13.10;99.90;;;;;;4962500;28;20042;-72
2022/07/27 00:29:07;;;;;;;6.10;2.17;;;13.10;99.90;;;;;;4977423;28;20185;-71
2022/07/27 00:31:32;;;;;;;5.40;1.95;;;13.10;99.90;;;;;;4978958;28;20038;-72
2022/07/27 00:33:59;;;;;;;7.38;1.98;;;13.10;99.90;;;;;;4962929;28;20516;-72
2022/07/27 00:36:25;;;;;;;5.63;1.77;;;13.10;99.90;;;;;;4962486;28;20038;-72
2022/07/27 00:38:51;;;;;;;5.88;1.95;;;13.10;99.90;;;;;;4999144;28;20039;-73
2022/07/27 00:41:17;;;;;;;8.23;1.95;;;13.10;99.90;;;;;;4998521;28;20129;-72
2022/07/27 00:44:11;;;;;;;5.45;2.15;;;13.00;99.90;;;;;;4998551;28;20444;-72
2022/07/27 00:46:38;;;;;;;4.72;2.13;;;12.90;99.90;;;;;;4995443;28;20042;-72
2022/07/27 00:49:04;;;;;;;4.15;2.15;;;12.90;99.90;;;;;;5015883;28;20124;-72
2022/07/27 00:51:31;;;;;;;6.22;2.70;;;12.80;99.90;;;;;;4998302;28;20085;-71
2022/07/27 00:53:58;;;;;;;5.38;2.10;;;12.80;99.90;;;;;;4998188;28;20103;-71
2022/07/27 00:56:24;;;;;;;4.57;1.98;;;12.70;99.90;;;;;;4997996;28;20078;-72
2022/07/27 00:58:52;;;;;;;6.95;2.58;;;12.70;99.90;;;;;;4996391;28;20070;-71
2022/07/27 01:01:18;;;;;;;8.32;2.45;;;12.70;99.90;;;;;;4998327;28;20046;-72
2022/07/27 01:03:45;;;;;;;6.07;2.38;;;12.70;99.90;;;;;;5015688;28;20034;-72
2022/07/27 01:06:12;;;;;;;6.90;2.15;;;12.70;99.90;;;;;;4998084;28;20048;-72
2022/07/27 01:08:38;;;;;;;3.40;2.13;;;12.60;99.90;;;;;;4997514;28;20492;-71
2022/07/27 01:11:05;;;;;;;5.53;2.28;;;12.60;99.90;;;;;;4981699;28;20145;-72
2022/07/27 01:13:32;;;;;;;4.40;2.30;;;12.60;99.90;;;;;;5015487;28;20477;-72
2022/07/27 01:15:58;;;;;;;6.10;2.35;;;12.60;99.90;;;;;;4997140;28;20100;-72
2022/07/27 01:18:28;;;;;;;5.65;2.35;;;12.60;99.90;;;;;;5015268;28;20077;-72
2022/07/27 01:20:55;;;;;;;6.45;2.80;;;12.70;99.90;;;;;;4997793;28;20049;-72
2022/07/27 01:23:23;;;;;;;4.10;2.47;;;12.70;99.90;;;;;;5015054;28;20045;-72
2022/07/27 01:25:48;;;;;;;4.07;2.35;;;12.70;99.90;;;;;;4997666;28;20389;-72
2022/07/27 01:28:14;;;;;;;4.25;2.30;;;12.70;99.90;;;;;;5013225;28;20083;-72
2022/07/27 01:30:40;;;;;;;5.32;2.55;;;12.70;99.90;;;;;;5015074;28;20412;-72
2022/07/27 01:33:08;;;;;;;6.03;2.67;;;12.70;99.90;;;;;;4981186;28;20522;-72
2022/07/27 01:35:36;;;;;;;6.18;2.22;;;12.70;99.90;;;;;;4981105;28;20037;-72
2022/07/27 01:38:02;;;;;;;8.95;2.90;;;12.70;99.90;;;;;;5014483;28;20092;-72
2022/07/27 01:40:29;;;;;;;4.63;2.40;;;12.70;99.90;;;;;;5015172;28;20038;-72
2022/07/27 01:42:55;;;;;;;5.13;2.22;;;12.70;99.90;;;;;;5014980;28;20403;-72
2022/07/27 01:45:21;;;;;;;5.40;2.35;;;12.70;99.90;;;;;;4997380;28;20045;-72
2022/07/27 01:47:47;;;;;;;7.05;2.60;;;12.60;99.90;;;;;;4980993;28;20041;-72
2022/07/27 01:50:15;;;;;;;7.03;2.72;;;12.60;99.90;;;;;;5015012;28;20086;-72
2022/07/27 01:52:40;;;;;;;5.50;2.85;;;12.60;99.90;;;;;;4997188;28;20050;-72
2022/07/27 01:55:09;;;;;;;6.70;3.15;;;12.50;99.90;;;;;;4980774;28;20056;-72
2022/07/27 01:57:35;;;;;;;5.55;2.92;;;12.50;99.90;;;;;;4995006;28;20046;-72
2022/07/27 02:00:03;;;;;;;8.45;3.35;;;12.40;99.90;;;;;;4997393;28;20131;-72
2022/07/27 02:02:29;;;;;;;5.53;2.70;;;12.40;99.90;;;;;;4997099;28;20427;-73
2022/07/27 02:04:55;;;;;;;5.90;3.63;;;12.30;99.90;;;;;;4997136;28;20096;-72
2022/07/27 02:07:21;;;;;;;5.55;3.25;;;12.20;99.90;;;;;;4996790;28;20128;-71
2022/07/27 02:09:47;;;;;;;5.93;2.53;;;12.20;99.90;;;;;;5014581;28;20124;-73
2022/07/27 02:14:57;;;;;;;8.93;2.83;;;12.10;99.90;;;;;;4996725;28;20050;-72
2022/07/27 02:17:22;;;;;;;7.20;2.65;;;12.00;99.90;;;;;;4980108;28;20037;-72
2022/07/27 02:19:48;;;;;;;5.97;2.15;;;11.90;99.90;;;;;;4996630;28;20124;-72
2022/07/27 02:22:14;;;;;;;5.50;2.83;;;11.80;99.90;;;;;;4996516;28;20073;-72
2022/07/27 02:24:40;;;;;;;7.28;2.63;;;11.80;99.90;;;;;;4996674;28;20038;-72
2022/07/27 02:27:06;;;;;;;5.50;2.45;;;11.80;99.90;;;;;;5014666;28;20385;-72
2022/07/27 02:29:31;;;;;;;7.38;3.08;;;11.60;99.90;;;;;;4995123;28;20091;-72
2022/07/27 02:31:57;;;;;;;5.05;2.65;;;11.60;99.90;;;;;;4980417;28;20045;-72
2022/07/27 02:34:23;;;;;;;4.10;2.55;;;11.50;99.90;;;;;;4996336;28;20042;-73
2022/07/27 02:36:49;;;;;;;3.88;2.50;;;11.50;99.90;;;;;;4996239;28;20052;-73
2022/07/27 02:39:15;;;;;;;7.10;2.88;;;11.40;99.90;;;;;;4996500;28;20069;-73
2022/07/27 02:41:41;;;;;;;4.82;2.47;;;11.40;99.90;;;;;;4980557;28;20106;-73
2022/07/27 02:44:07;;;;;;;6.15;2.97;;;11.30;99.90;;;;;;5013879;28;20042;-73
2022/07/27 02:46:32;;;;;;;4.88;2.90;;;11.30;99.90;;;;;;4980518;28;20052;-73
2022/07/27 02:48:58;;;;;;;11.15;3.22;;;11.20;99.90;;;;;;5013993;28;20416;-73
2022/07/27 02:51:24;;;;;;;5.75;3.00;;;11.10;99.90;;;;;;4980465;28;20045;-73
2022/07/27 02:53:50;;;;;;;7.60;3.67;;;11.10;99.90;;;;;;5014178;28;20502;-73
2022/07/27 02:56:16;;;;;;;8.10;3.25;;;11.10;99.90;;;;;;5013756;28;20041;-73
2022/07/27 02:58:41;;;;;;;8.73;3.75;;;11.00;99.90;;;;;;5012417;28;20577;-73
2022/07/27 03:01:07;;;;;;;6.57;2.95;;;11.00;99.90;;;;;;4979995;28;20041;-73
2022/07/27 03:03:33;;;;;;;6.05;2.88;;;11.00;99.90;;;;;;5013535;28;20030;-73
2022/07/27 03:05:59;;;;;;;9.13;3.45;;;10.90;99.90;;;;;;4995922;28;20388;-73
2022/07/27 03:08:25;;;;;;;5.65;2.90;;;10.90;99.90;;;;;;5013182;28;20109;-73
2022/07/27 03:10:50;;;;;;;9.02;2.95;;;10.90;99.90;;;;;;5013687;28;20045;-73
2022/07/27 03:13:16;;;;;;;10.60;3.33;;;10.90;99.90;;;;;;4995696;28;20068;-73
2022/07/27 03:15:42;;;;;;;9.10;3.97;;;10.90;99.90;;;;;;5013436;28;20050;-73
2022/07/27 03:18:08;;;;;;;7.57;3.40;;;10.80;99.90;;;;;;5013747;28;20034;-73
2022/07/27 03:20:33;;;;;;;9.48;3.55;;;10.80;99.90;;;;;;5013165;28;20583;-73
2022/07/27 03:22:59;;;;;;;8.77;2.80;;;10.70;99.90;;;;;;4979432;28;20040;-72
2022/07/27 03:25:25;;;;;;;38.78;5.05;;;10.70;99.90;;;;;;4979531;28;20042;-72
2022/07/27 03:27:51;;;;;;;140.07;8.60;;;10.60;99.90;;;;;;4977453;28;20134;-73
2022/07/27 03:30:17;;;;;;;3.83;1.60;;;10.50;99.90;;;;;;5013096;28;20100;-72
2022/07/27 03:32:43;;;;;;;4.97;2.88;;;10.40;99.90;;;;;;5013293;28;20049;-72
2022/07/27 03:35:09;;;;;;;7.82;2.90;;;10.40;99.90;;;;;;4995503;28;20053;-72
2022/07/27 03:37:35;;;;;;;8.95;3.33;;;10.30;99.90;;;;;;4995971;28;20077;-72
2022/07/27 03:40:01;;;;;;;7.78;3.05;;;10.30;99.90;;;;;;5001480;28;20030;-73
2022/07/27 03:42:26;;;;;;;6.57;3.53;;;10.30;99.90;;;;;;4993624;28;20100;-72
2022/07/27 03:44:52;;;;;;;9.07;3.47;;;10.20;99.90;;;;;;4993733;28;20084;-72
2022/07/27 03:47:18;;;;;;;8.38;3.72;;;10.20;99.90;;;;;;4976218;28;20042;-72
2022/07/27 03:49:44;;;;;;;9.45;3.33;;;10.20;99.90;;;;;;4976335;28;20097;-72
2022/07/27 03:52:10;;;;;;;6.15;3.25;;;10.20;99.90;;;;;;4993791;28;20092;-72
2022/07/27 03:54:36;;;;;;;6.10;3.30;;;10.20;99.90;;;;;;4976508;28;20050;-72
2022/07/27 03:57:02;;;;;;;5.45;3.42;;;10.20;99.90;;;;;;4976113;28;20420;-72
2022/07/27 03:59:28;;;;;;;6.72;3.58;;;10.10;99.90;;;;;;4958775;28;20177;-72
2022/07/27 04:01:54;;;;;;;9.60;4.22;;;10.20;99.90;;;;;;4979699;28;20073;-72
2022/07/27 04:04:19;;;;;;;11.15;4.22;;;10.10;99.90;;;;;;4997604;28;20042;-72
2022/07/27 04:06:46;;;;;;;9.77;3.63;;;10.20;99.90;;;;;;4980326;28;20050;-72
2022/07/27 04:09:12;;;;;;;11.15;3.58;;;10.20;99.90;;;;;;4997279;28;20501;-72
2022/07/27 04:11:38;;;;;;;7.90;3.47;;;10.20;99.90;;;;;;4979945;28;20050;-72
2022/07/27 04:14:04;;;;;;;9.27;4.13;;;10.20;99.90;;;;;;4980068;28;20097;-72
2022/07/27 04:16:30;;;;;;;9.63;3.17;;;10.20;99.90;;;;;;4980379;28;20050;-73
2022/07/27 04:18:56;;;;;;;8.40;3.92;;;10.20;99.90;;;;;;4997403;28;20047;-72
2022/07/27 04:21:22;;;;;;;8.20;3.83;;;10.30;99.90;;;;;;4997339;28;20097;-72
2022/07/27 04:23:47;;;;;;;9.35;3.42;;;10.30;99.90;;;;;;4980077;28;20042;-72
2022/07/27 04:26:14;;;;;;;8.38;3.33;;;10.30;99.90;;;;;;4980087;28;20124;-72
2022/07/27 04:28:41;;;;;;;4.68;3.08;;;10.30;99.90;;;;;;4979219;28;20046;-72
2022/07/27 04:31:08;;;;;;;7.05;3.35;;;10.30;99.90;;;;;;4979657;28;20064;-73
2022/07/27 04:33:34;;;;;;;7.00;3.35;;;10.30;99.90;;;;;;4963561;28;20047;-72
2022/07/27 04:36:00;;;;;;;7.55;3.25;;;10.30;99.90;;;;;;4997346;28;20053;-73
2022/07/27 04:38:26;;;;;;;6.95;3.50;;;10.40;99.90;;;;;;4979582;28;20050;-73
2022/07/27 04:40:51;;;;;;;9.73;3.63;;;10.40;99.90;;;;;;4996811;28;20121;-73
2022/07/27 04:43:17;;;;;;;11.70;4.05;;;10.50;99.90;;;;;;4979647;28;20034;-72
2022/07/27 04:45:43;;;;;;;19.48;4.43;;;10.60;99.90;;;;;;4979533;28;20042;-72
2022/07/27 04:48:09;;;;;;;9.35;3.70;;;10.70;99.90;;;;;;4996625;28;20373;-72
2022/07/27 04:50:43;;;;;;;6.13;3.20;;;10.80;99.90;;;;;;4996891;28;20061;-72
2022/07/27 04:53:10;;;;;;;5.03;3.22;;;10.90;99.90;;;;;;4963130;28;20077;-73
2022/07/27 04:55:40;;;;;;;7.03;3.60;;;11.00;99.90;;;;;;4979011;28;20077;-73
2022/07/27 04:58:06;;;;;;;11.32;3.55;;;11.10;99.90;;;;;;4978184;28;20093;-72
2022/07/27 05:00:32;;;;;;;6.82;3.30;;;11.20;99.90;;;;;;4996977;28;20078;-72
2022/07/27 05:02:58;;;;;;;8.82;3.55;;;11.30;99.90;;;;;;4996633;28;20046;-73
2022/07/27 05:05:24;;;;;;;7.15;2.88;;;11.40;99.90;;;;;;4979014;28;20046;-73
2022/07/27 05:07:49;;;;;;;6.45;3.15;;;11.50;99.90;;;;;;4962653;28;20077;-73
2022/07/27 05:10:16;;;;;;;7.43;3.20;;;11.60;99.90;;;;;;4979099;28;20101;-73
2022/07/27 05:12:43;;;;;;;7.30;3.00;;;11.70;99.90;;;;;;4979195;28;20576;-73
2022/07/27 05:15:09;;;;;;;7.65;3.28;;;11.80;99.90;;;;;;4963040;28;20046;-73
2022/07/27 05:17:35;;;;;;;11.95;3.80;;;12.00;99.90;;;;;;4996187;28;20492;-73
2022/07/27 05:20:02;;;;;;;9.07;3.78;;;12.10;99.90;;;;;;4979209;28;20049;-73
2022/07/27 05:22:28;;;;;;;9.73;3.25;;;12.20;99.90;;;;;;4978824;28;20126;-73
2022/07/27 05:24:54;;;;;;;7.68;3.15;;;12.30;99.90;;;;;;4978757;28;20121;-73
2022/07/27 05:27:20;;;;;;;10.75;3.85;;;12.40;99.90;;;;;;4978090;28;20069;-73
2022/07/27 05:29:46;;;;;;;5.05;3.13;;;12.50;99.90;;;;;;4978169;28;20497;-73
2022/07/27 05:32:12;;;;;;;7.43;3.20;;;12.60;99.90;;;;;;4978805;28;20038;-73
2022/07/27 05:34:38;;;;;;;8.63;2.85;;;12.70;99.90;;;;;;4962428;28;20477;-73
2022/07/27 05:37:04;;;;;;;10.45;2.70;;;12.80;99.90;;;;;;4978341;28;20416;-73
2022/07/27 05:39:30;;;;;;;9.05;3.45;;;12.90;99.90;;;;;;4978804;28;20038;-73
2022/07/27 05:41:55;;;;;;;7.47;2.70;;;13.00;99.90;;;;;;4962304;28;20460;-73
2022/07/27 05:44:21;;;;;;;7.18;3.17;;;13.10;99.90;;;;;;4978263;28;20038;-73
2022/07/27 05:46:47;;;;;;;9.15;2.33;;;13.20;99.90;;;;;;4995951;28;20121;-72
2022/07/27 05:49:13;;;;;;;8.32;3.17;;;13.30;99.90;;;;;;5006067;28;20042;-73
2022/07/27 05:51:39;;;;;;;6.50;2.80;;;13.50;99.90;;;;;;4963702;28;20038;-72
2022/07/27 05:54:05;;;;;;;7.43;2.80;;;13.60;99.90;;;;;;4982353;28;20474;-72
2022/07/27 05:56:31;;;;;;;6.30;2.50;;;13.70;99.90;;;;;;4997252;28;20492;-72
2022/07/27 05:58:57;;;;;;;6.00;2.65;;;13.80;99.90;;;;;;4996307;28;20153;-73
2022/07/27 06:01:22;;;;;;;6.82;2.58;;;13.80;99.90;;;;;;4997449;28;20117;-72
2022/07/27 06:03:48;;;;;;;10.40;2.97;;;13.90;99.90;;;;;;5014521;28;20081;-72
2022/07/27 06:08:58;;;;;;;7.70;2.50;;;14.10;99.90;;;;;;5014312;28;20058;-72
2022/07/27 06:11:24;;;;;;;7.50;2.78;;;14.30;99.90;;;;;;4980809;28;20049;-72
2022/07/27 06:13:51;;;;;;;6.07;2.92;;;14.50;99.90;;;;;;5014249;28;20066;-72
2022/07/27 06:16:17;;;;;;;7.57;2.70;;;14.70;99.90;;;;;;4996817;28;20045;-72
2022/07/27 06:18:43;;;;;;;7.95;2.40;;;14.80;99.90;;;;;;4996954;28;20038;-72
2022/07/27 06:21:09;;;;;;;8.10;2.95;;;15.00;99.90;;;;;;4980846;28;20182;-71
2022/07/27 06:23:35;;;;;;;7.88;2.50;;;15.20;99.90;;;;;;4980012;28;20037;-71
2022/07/27 06:26:01;;;;;;;7.35;2.40;;;15.40;99.90;;;;;;5014468;28;20057;-71
2022/07/27 06:28:27;;;;;;;6.50;1.90;;;15.60;99.90;;;;;;4994623;28;20037;-72
2022/07/27 06:30:52;;;;;;;5.00;1.98;;;15.70;99.90;;;;;;4991775;28;20495;-71
2022/07/27 06:33:26;;;;;;;7.93;2.00;;;15.90;99.90;;;;;;4996144;28;20048;-71
2022/07/27 06:35:53;;;;;;;7.18;1.50;;;16.10;99.90;;;;;;4996262;28;20096;-71
2022/07/27 06:38:20;;;;;;;10.73;1.42;;;16.30;99.90;;;;;;4996246;28;20041;-71
2022/07/27 06:40:53;;;;;;;9.23;1.90;;;16.50;99.90;;;;;;4996094;28;20042;-73
2022/07/27 06:43:30;;;;;;;7.55;1.75;;;16.70;99.90;;;;;;4996423;28;20396;-71
2022/07/27 06:45:59;;;;;;;7.25;1.20;;;16.80;99.90;;;;;;5013544;28;20611;-72
2022/07/27 06:48:26;;;;;;;4.30;1.48;;;17.10;99.90;;;;;;4996134;28;20042;-71
2022/07/27 06:50:53;;;;;;;4.75;1.70;;;17.30;99.90;;;;;;4995953;28;20046;-71
2022/07/27 06:53:19;;;;;;;5.72;0.98;;;17.60;99.90;;;;;;4996123;28;20180;-71
2022/07/27 06:55:45;;;;;;;5.07;1.10;;;17.90;99.90;;;;;;4979259;28;20077;-71
2022/07/27 06:58:11;;;;;;;6.82;1.05;;;18.10;99.90;;;;;;4993520;28;20139;-71
2022/07/27 07:00:38;;;;;;;4.85;1.10;;;18.20;99.90;;;;;;4979264;28;20600;-73
2022/07/27 07:03:05;;;;;;;3.78;1.10;;;18.30;99.90;;;;;;5014036;28;20049;-71
2022/07/27 07:05:33;;;;;;;4.28;0.98;;;18.40;99.90;;;;;;4995385;28;20041;-71
2022/07/27 07:08:00;;;;;;;7.22;1.00;;;18.50;99.90;;;;;;4979189;28;20060;-72
2022/07/27 07:10:26;;;;;;;6.05;1.00;;;18.60;99.90;;;;;;4995228;28;20418;-72
2022/07/27 07:12:56;;;;;;;5.38;1.15;;;18.70;99.90;;;;;;5012931;28;20049;-73
2022/07/27 07:15:25;;;;;;;4.78;1.00;;;18.60;99.90;;;;;;4994898;28;20053;-74
2022/07/27 07:17:53;;;;;;;5.13;0.90;;;18.60;99.90;;;;;;4978754;28;20049;-72
2022/07/27 07:20:18;;;;;;;5.10;1.23;;;18.60;99.90;;;;;;4994571;28;20038;-70
2022/07/27 07:22:44;;;;;;;3.88;1.17;;;18.60;99.90;;;;;;4994502;28;20037;-74
2022/07/27 07:25:10;;;;;;;2.75;1.17;;;18.90;99.90;;;;;;4994452;28;20042;-71
2022/07/27 07:27:36;;;;;;;3.03;0.70;;;19.00;99.90;;;;;;4984572;28;20077;-73
2022/07/27 07:30:03;;;;;;;5.63;1.20;;;19.00;99.90;;;;;;4975226;28;20081;-72
2022/07/27 07:32:29;;;;;;;3.45;1.13;;;19.10;99.90;;;;;;4993074;28;20047;-73
2022/07/27 07:34:55;;;;;;;3.15;0.90;;;19.10;99.90;;;;;;4974298;28;20046;-73
2022/07/27 07:37:21;;;;;;;5.28;0.98;;;19.10;99.90;;;;;;4975358;28;20049;-74
2022/07/27 07:39:47;;;;;;;5.47;1.20;;;19.10;99.90;;;;;;4985074;28;20045;-71
2022/07/27 07:42:13;;;;;;;4.43;0.90;;;19.20;99.90;;;;;;4994628;28;20041;-71
2022/07/27 07:44:39;;;;;;;7.53;1.40;;;19.30;99.90;;;;;;4994236;28;20046;-74
2022/07/27 07:47:05;;;;;;;3.53;0.93;;;19.40;99.90;;;;;;5012188;28;20069;-71
2022/07/27 07:49:31;;;;;;;2.83;0.73;;;19.10;99.90;;;;;;4994472;28;20045;-73
2022/07/27 07:51:57;;;;;;;4.13;0.90;;;18.90;99.90;;;;;;4994124;28;20491;-72
2022/07/27 07:54:23;;;;;;;3.13;0.77;;;19.10;99.90;;;;;;5011794;28;20049;-71
2022/07/27 07:56:49;;;;;;;2.80;0.82;;;19.40;99.90;;;;;;4994005;28;20046;-75
2022/07/27 07:59:15;;;;;;;3.30;0.85;;;19.60;99.90;;;;;;5009340;28;20042;-73
2022/07/27 08:01:40;;;;;;;2.45;0.93;;;19.80;99.90;;;;;;5011892;28;20042;-74
2022/07/27 08:04:06;;;;;;;2.22;0.90;;;20.10;99.90;;;;;;4994382;28;20496;-74
2022/07/27 08:06:32;;;;;;;3.13;0.88;;;20.40;99.90;;;;;;5011718;28;20056;-73
2022/07/27 08:08:58;;;;;;;4.28;1.02;;;20.40;99.90;;;;;;5011524;28;20563;-72
2022/07/27 08:11:24;;;;;;;4.50;0.98;;;20.40;99.90;;;;;;4994213;28;20052;-73
2022/07/27 08:13:50;;;;;;;3.42;1.00;;;20.40;99.90;;;;;;4994078;28;20500;-72
2022/07/27 08:16:15;;;;;;;5.20;1.38;;;20.50;99.90;;;;;;4993782;28;20180;-72
2022/07/27 08:18:42;;;;;;;2.88;0.98;;;20.80;99.90;;;;;;4988405;28;20042;-72
2022/07/27 08:21:08;;;;;;;2.67;0.80;;;21.20;99.90;;;;;;4989006;28;20052;-73
2022/07/27 08:23:34;;;;;;;2.53;1.35;;;21.30;99.90;;;;;;5003667;28;20045;-73
2022/07/27 08:26:00;;;;;;;3.58;0.90;;;21.30;99.90;;;;;;4974481;28;20042;-72
2022/07/27 08:28:26;;;;;;;4.32;1.05;;;21.00;99.90;;;;;;4984812;28;20042;-71
2022/07/27 08:30:52;;;;;;;2.65;0.65;;;20.90;99.90;;;;;;4993856;28;20045;-73
2022/07/27 08:33:18;;;;;;;3.03;1.10;;;21.20;99.90;;;;;;4977689;28;20039;-72
2022/07/27 08:35:44;;;;;;;3.60;0.95;;;21.50;99.50;;;;;;4993344;28;20047;-72
2022/07/27 08:38:11;;;;;;;1.77;0.68;;;21.50;99.00;;;;;;4977674;28;20041;-72
2022/07/27 08:40:38;;;;;;;3.72;1.08;;;21.30;99.90;;;;;;4993695;28;20042;-73
2022/07/27 08:43:05;;;;;;;3.97;1.00;;;20.90;99.90;;;;;;4993902;28;20492;-71
2022/07/27 08:45:31;;;;;;;5.75;1.08;;;20.30;99.80;;;;;;5011432;28;20112;-72
2022/07/27 08:47:58;;;;;;;5.50;1.10;;;19.70;99.90;;;;;;5014635;28;20052;-71
2022/07/27 08:50:26;;;;;;;3.50;0.98;;;19.30;99.90;;;;;;5014730;28;20488;-71
2022/07/27 08:53:07;;;;;;;2.90;0.60;;;19.00;99.90;;;;;;4997054;28;20046;-73
2022/07/27 08:55:39;;;;;;;2.78;0.77;;;19.00;99.90;;;;;;4997140;28;20034;-72
2022/07/27 08:58:06;;;;;;;5.65;1.05;;;19.10;99.90;;;;;;4994973;28;20060;-71
2022/07/27 09:00:33;;;;;;;5.35;1.10;;;19.40;99.90;;;;;;5014698;28;20038;-73
2022/07/27 09:03:00;;;;;;;5.28;0.90;;;19.40;99.90;;;;;;4997257;28;20034;-73
2022/07/27 09:05:25;;;;;;;2.92;0.73;;;19.20;99.90;;;;;;5014601;28;20053;-71
2022/07/27 09:07:51;;;;;;;1.95;0.80;;;19.00;99.90;;;;;;4992308;28;20050;-71
2022/07/27 09:10:32;;;;;;;3.90;1.10;;;18.80;99.90;;;;;;4961297;28;20519;-71
2022/07/27 09:12:58;;;;;;;3.60;0.80;;;18.70;99.90;;;;;;4977414;28;20038;-71
2022/07/27 09:15:25;;;;;;;4.35;1.00;;;19.00;99.90;;;;;;4977191;28;20053;-73
2022/07/27 09:17:50;;;;;;;5.70;1.20;;;19.40;99.90;;;;;;4977514;28;20201;-73
2022/07/27 09:20:19;;;;;;;3.67;1.77;;;19.40;99.90;;;;;;4994548;28;20564;-73
2022/07/27 09:22:53;;;;;;;4.80;1.90;;;19.20;99.90;;;;;;4979067;28;20040;-72
2022/07/27 09:25:26;;;;;;;8.80;1.88;;;18.80;99.90;;;;;;4958048;28;20039;-72
2022/07/27 09:27:54;;;;;;;7.90;1.80;;;18.50;99.90;;;;;;4950867;28;20050;-71
2022/07/27 09:30:20;;;;;;;3.03;1.10;;;18.30;99.90;;;;;;4977849;28;20042;-71
2022/07/27 09:33:04;;;;;;;6.93;1.85;;;18.10;99.90;;;;;;4977878;28;20541;-71
2022/07/27 09:35:33;;;;;;;3.42;1.13;;;18.00;99.90;;;;;;4994675;28;20129;-71
2022/07/27 09:38:19;;;;;;;6.80;1.13;;;18.00;99.90;;;;;;4977494;28;20043;-71
2022/07/27 09:40:45;;;;;;;5.35;1.38;;;18.10;99.90;;;;;;4994572;28;20500;-71
2022/07/27 09:43:13;;;;;;;6.50;1.63;;;18.20;99.90;;;;;;4977341;28;20274;-72
2022/07/27 09:45:44;;;;;;;3.08;1.23;;;18.40;99.90;;;;;;4977247;28;20400;-71
2022/07/27 09:48:14;;;;;;;5.22;1.45;;;18.60;99.90;;;;;;4994487;28;20042;-72
2022/07/27 09:50:43;;;;;;;4.13;0.88;;;18.70;99.90;;;;;;4976765;28;20051;-71
2022/07/27 09:53:31;;;;;;;3.67;1.33;;;18.90;99.90;;;;;;4977210;28;20049;-71
2022/07/27 09:56:04;;;;;;;5.30;1.10;;;19.10;99.90;;;;;;4976990;28;20046;-71
2022/07/27 09:58:40;;;;;;;3.22;1.05;;;19.30;99.90;;;;;;4958522;28;20100;-71
2022/07/27 10:01:07;;;;;;;3.78;1.00;;;19.50;99.90;;;;;;4994374;28;20129;-72
2022/07/27 10:03:33;;;;;;;6.05;1.10;;;19.70;99.90;;;;;;4977170;28;20039;-72
2022/07/27 10:05:59;;;;;;;3.55;1.17;;;19.80;99.90;;;;;;4994270;28;20057;-71
2022/07/27 10:08:25;;;;;;;4.93;1.10;;;19.90;99.90;;;;;;4976559;28;20258;-73
2022/07/27 10:10:51;;;;;;;5.20;1.30;;;20.00;99.90;;;;;;4976573;28;20058;-72
2022/07/27 10:13:17;;;;;;;5.72;1.08;;;19.90;99.90;;;;;;4977017;28;20046;-71
2022/07/27 10:15:43;;;;;;;7.95;1.40;;;19.90;99.90;;;;;;4993878;28;20508;-72
2022/07/27 10:18:26;;;;;;;5.30;1.20;;;19.90;99.90;;;;;;4976369;28;20058;-71
2022/07/27 10:20:52;;;;;;;4.90;1.55;;;19.80;99.90;;;;;;4994366;28;20054;-72
2022/07/27 10:23:26;;;;;;;4.32;1.35;;;19.80;99.90;;;;;;4959997;28;20209;-72
2022/07/27 10:26:14;;;;;;;4.13;1.30;;;19.70;99.90;;;;;;4993460;28;20046;-72
2022/07/27 10:28:58;;;;;;;4.45;1.45;;;19.70;99.90;;;;;;4974357;28;20042;-72
2022/07/27 10:31:30;;;;;;;8.27;1.52;;;19.80;99.90;;;;;;4956765;28;20046;-74
2022/07/27 10:33:59;;;;;;;2.25;1.00;;;20.00;99.90;;;;;;4940601;28;20141;-74
2022/07/27 10:36:31;;;;;;;4.35;0.90;;;20.10;99.90;;;;;;4956415;28;20097;-74
2022/07/27 10:38:59;;;;;;;4.80;1.25;;;20.70;99.90;;;;;;4956331;28;20500;-76
2022/07/27 10:41:33;;;;;;;5.80;1.13;;;20.80;99.90;;;;;;4956440;28;20050;-74
2022/07/27 10:44:17;;;;;;;4.68;1.30;;;20.80;99.90;;;;;;4956323;28;20039;-69
2022/07/27 10:47:03;;;;;;;4.18;1.38;;;20.90;99.90;;;;;;4956717;28;20058;-72
2022/07/27 10:49:33;;;;;;;6.15;1.75;;;21.40;99.90;;;;;;4956699;28;20050;-74
2022/07/27 10:52:00;;;;;;;3.13;1.15;;;22.00;99.90;;;;;;4973566;28;20105;-74
2022/07/27 10:54:38;;;;;;;3.63;1.23;;;22.30;99.90;;;;;;4974032;28;20047;-74
2022/07/27 10:57:08;;;;;;;2.85;1.00;;;22.30;99.90;;;;;;4956322;28;20445;-74
2022/07/27 10:59:43;;;;;;;6.55;1.85;;;22.10;99.90;;;;;;4953766;28;20038;-71
2022/07/27 11:02:12;;;;;;;5.28;1.35;;;21.60;99.90;;;;;;4973608;28;20042;-74
2022/07/27 11:04:49;;;;;;;2.95;0.85;;;21.20;99.90;;;;;;4973415;28;20421;-73
2022/07/27 11:07:21;;;;;;;4.30;1.00;;;20.50;99.90;;;;;;4973502;28;20046;-75
2022/07/27 11:09:52;;;;;;;4.82;1.17;;;19.90;99.90;;;;;;4992452;28;20065;-74
2022/07/27 11:12:18;;;;;;;4.13;1.20;;;19.40;99.90;;;;;;4992494;28;20043;-73
2022/07/27 11:14:54;;;;;;;5.00;1.20;;;19.00;99.90;;;;;;4975501;28;20064;-74
2022/07/27 11:17:27;;;;;;;3.03;1.00;;;18.90;99.90;;;;;;4974932;28;20116;-73
2022/07/27 11:20:01;;;;;;;5.03;1.20;;;18.70;99.90;;;;;;4975332;28;20128;-74
2022/07/27 11:22:38;;;;;;;5.00;1.30;;;18.70;99.90;;;;;;4974893;28;20034;-75
2022/07/27 11:25:05;;;;;;;4.88;1.40;;;18.70;99.90;;;;;;4975526;28;20042;-75
2022/07/27 11:27:32;;;;;;;4.32;1.08;;;18.70;99.90;;;;;;4972873;28;20042;-74
2022/07/27 11:29:58;;;;;;;4.55;1.10;;;18.80;99.90;;;;;;4958892;28;20038;-77
2022/07/27 11:32:24;;;;;;;4.38;1.10;;;18.90;99.90;;;;;;4974920;28;20254;-77
2022/07/27 11:34:50;;;;;;;4.78;1.10;;;19.00;99.90;;;;;;4975158;28;20034;-77
2022/07/27 11:37:23;;;;;;;4.60;1.48;;;19.00;99.90;;;;;;4992313;28;20460;-77
2022/07/27 11:39:59;;;;;;;3.38;0.90;;;19.30;99.90;;;;;;4974771;28;20045;-75
2022/07/27 11:42:36;;;;;;;3.05;0.93;;;19.40;99.90;;;;;;4974782;28;20282;-77
2022/07/27 11:45:02;;;;;;;3.88;0.90;;;19.50;99.90;;;;;;4975143;28;20390;-77
2022/07/27 11:47:29;;;;;;;5.60;0.90;;;19.70;99.90;;;;;;4974612;28;20038;-77
2022/07/27 11:50:05;;;;;;;1.80;0.68;;;20.20;99.90;;;;;;4974839;28;20046;-76
2022/07/27 11:52:31;;;;;;;2.45;0.90;;;20.60;99.90;;;;;;4992129;28;20456;-77
2022/07/27 11:54:57;;;;;;;5.22;1.00;;;20.90;99.90;;;;;;4974953;28;20078;-70
2022/07/27 11:57:31;;;;;;;2.92;0.95;;;21.40;99.90;;;;;;4991988;28;20436;-72
2022/07/27 11:59:57;;;;;;;3.90;0.70;;;21.90;99.70;;;;;;4974680;28;20137;-72
2022/07/27 12:02:25;;;;;;;2.80;0.65;;;22.40;99.90;;;;;;4974878;28;20120;-77
2022/07/27 12:04:53;;;;;;;3.08;0.60;;;22.80;99.90;;;;;;4992243;28;20039;-70
2022/07/27 12:07:20;;;;;;;1.90;0.60;;;23.10;96.90;;;;;;4974316;28;20046;-74
2022/07/27 12:09:53;;;;;;;2.35;0.60;;;23.20;96.30;;;;;;4994119;28;20050;-75
2022/07/27 12:12:22;;;;;;;4.50;0.73;;;23.40;95.60;;;;;;5011740;28;20049;-71
2022/07/27 12:14:49;;;;;;;4.47;1.15;;;23.30;94.80;;;;;;4994497;28;20452;-76
2022/07/27 12:17:38;;;;;;;5.10;0.88;;;23.20;94.30;;;;;;5011376;28;20042;-75
2022/07/27 12:20:06;;;;;;;3.53;0.70;;;22.80;94.70;;;;;;4994339;28;20037;-74
2022/07/27 12:22:37;;;;;;;1.58;0.65;;;22.50;95.20;;;;;;4996728;28;20073;-73
2022/07/27 12:25:10;;;;;;;2.00;0.50;;;22.20;95.70;;;;;;4998025;28;20128;-73
2022/07/27 12:27:37;;;;;;;3.10;0.60;;;21.90;94.40;;;;;;4967669;28;20050;-72
2022/07/27 12:30:06;;;;;;;4.38;0.60;;;21.50;93.80;;;;;;4976256;28;20038;-74
2022/07/27 12:32:41;;;;;;;5.07;1.08;;;21.30;95.50;;;;;;4975024;28;20047;-72
2022/07/27 12:35:20;;;;;;;3.05;0.70;;;21.30;95.60;;;;;;4958925;28;20501;-75
2022/07/27 12:37:46;;;;;;;3.50;0.80;;;21.10;94.50;;;;;;4974714;28;20061;-77
2022/07/27 12:40:17;;;;;;;1.63;0.50;;;21.00;95.00;;;;;;4976015;28;20485;-76
2022/07/27 12:42:44;;;;;;;0.60;0.40;;;21.00;95.70;;;;;;4958532;28;20042;-74
2022/07/27 12:45:20;;;;;;;2.53;0.80;;;21.10;95.20;;;;;;4974838;28;20047;-75
2022/07/27 12:47:46;;;;;;;4.75;0.75;;;21.10;95.60;;;;;;4958377;28;20054;-73
2022/07/27 12:50:15;;;;;;;2.63;0.85;;;21.00;95.70;;;;;;4974558;28;20039;-75
2022/07/27 12:52:47;;;;;;;5.22;0.93;;;20.90;96.60;;;;;;4975759;28;20038;-72
2022/07/27 12:55:14;;;;;;;5.82;1.10;;;20.70;97.60;;;;;;4958236;28;20039;-72